sensor_id;sensor_type;location;lat;lon;timestamp;P1;durP1;ratioP1;P2;durP2;ratioP2
529;SDS011;251;48.704;9.210;2022-07-10T00:02:19;2.33;;;1.50;;
529;SDS011;251;48.704;9.210;2022-07-10T00:04:46;1.87;;;1.40;;
529;SDS011;251;48.704;9.210;2022-07-10T00:07:12;1.70;;;1.33;;
529;SDS011;251;48.704;9.210;2022-07-10T00:09:39;1.83;;;1.50;;
529;SDS011;251;48.704;9.210;2022-07-10T00:12:06;2.73;;;2.10;;
529;SDS011;251;48.704;9.210;2022-07-10T00:14:33;2.50;;;1.50;;
529;SDS011;251;48.704;9.210;2022-07-10T00:17:00;1.60;;;1.20;;
529;SDS011;251;48.704;9.210;2022-07-10T00:19:28;2.10;;;1.57;;
529;SDS011;251;48.704;9.210;2022-07-10T00:21:54;2.13;;;1.53;;
529;SDS011;251;48.704;9.210;2022-07-10T00:24:21;2.77;;;1.53;;
529;SDS011;251;48.704;9.210;2022-07-10T00:26:48;1.70;;;1.60;;
529;SDS011;251;48.704;9.210;2022-07-10T00:29:15;1.70;;;1.30;;
529;SDS011;251;48.704;9.210;2022-07-10T00:31:41;2.80;;;1.70;;
529;SDS011;251;48.704;9.210;2022-07-10T00:34:08;1.90;;;1.30;;
529;SDS011;251;48.704;9.210;2022-07-10T00:36:36;1.60;;;1.30;;
529;SDS011;251;48.704;9.210;2022-07-10T00:39:03;1.73;;;1.40;;
529;SDS011;251;48.704;9.210;2022-07-10T00:41:30;1.93;;;1.27;;
529;SDS011;251;48.704;9.210;2022-07-10T00:43:57;1.40;;;1.00;;
529;SDS011;251;48.704;9.210;2022-07-10T00:46:26;1.80;;;1.30;;
529;SDS011;251;48.704;9.210;2022-07-10T00:48:54;1.87;;;1.30;;
529;SDS011;251;48.704;9.210;2022-07-10T00:51:23;1.80;;;1.30;;
529;SDS011;251;48.704;9.210;2022-07-10T00:53:52;2.13;;;1.50;;
529;SDS011;251;48.704;9.210;2022-07-10T00:56:19;2.10;;;1.83;;
529;SDS011;251;48.704;9.210;2022-07-10T00:58:48;1.80;;;1.60;;
529;SDS011;251;48.704;9.210;2022-07-10T01:01:16;2.27;;;1.30;;
529;SDS011;251;48.704;9.210;2022-07-10T01:03:43;1.63;;;1.37;;
529;SDS011;251;48.704;9.210;2022-07-10T01:06:10;2.10;;;1.60;;
529;SDS011;251;48.704;9.210;2022-07-10T01:08:37;2.00;;;1.50;;
529;SDS011;251;48.704;9.210;2022-07-10T01:11:06;1.50;;;1.03;;
529;SDS011;251;48.704;9.210;2022-07-10T01:13:35;2.13;;;1.77;;
529;SDS011;251;48.704;9.210;2022-07-10T01:16:02;1.87;;;1.33;;
529;SDS011;251;48.704;9.210;2022-07-10T01:18:29;2.57;;;1.30;;
529;SDS011;251;48.704;9.210;2022-07-10T01:20:58;1.77;;;1.37;;
529;SDS011;251;48.704;9.210;2022-07-10T01:23:24;1.80;;;1.30;;
529;SDS011;251;48.704;9.210;2022-07-10T01:25:51;2.00;;;1.43;;
529;SDS011;251;48.704;9.210;2022-07-10T01:28:19;2.30;;;2.10;;
529;SDS011;251;48.704;9.210;2022-07-10T01:30:46;1.50;;;1.10;;
529;SDS011;251;48.704;9.210;2022-07-10T01:33:13;2.77;;;2.00;;
529;SDS011;251;48.704;9.210;2022-07-10T01:35:40;1.87;;;1.43;;
529;SDS011;251;48.704;9.210;2022-07-10T01:38:09;1.80;;;1.50;;
529;SDS011;251;48.704;9.210;2022-07-10T01:40:35;2.33;;;1.10;;
529;SDS011;251;48.704;9.210;2022-07-10T01:43:02;1.87;;;1.40;;
529;SDS011;251;48.704;9.210;2022-07-10T01:45:29;2.23;;;1.50;;
529;SDS011;251;48.704;9.210;2022-07-10T01:47:55;1.77;;;1.00;;
529;SDS011;251;48.704;9.210;2022-07-10T01:50:23;4.70;;;2.17;;
529;SDS011;251;48.704;9.210;2022-07-10T01:52:49;1.87;;;1.37;;
529;SDS011;251;48.704;9.210;2022-07-10T01:55:17;1.50;;;1.00;;
529;SDS011;251;48.704;9.210;2022-07-10T01:57:44;1.77;;;1.40;;
529;SDS011;251;48.704;9.210;2022-07-10T02:00:11;2.63;;;1.77;;
529;SDS011;251;48.704;9.210;2022-07-10T02:02:38;2.47;;;1.60;;
529;SDS011;251;48.704;9.210;2022-07-10T02:05:05;1.73;;;1.27;;
529;SDS011;251;48.704;9.210;2022-07-10T02:07:31;2.40;;;1.70;;
529;SDS011;251;48.704;9.210;2022-07-10T02:09:58;1.70;;;1.23;;
529;SDS011;251;48.704;9.210;2022-07-10T02:12:26;2.10;;;1.67;;
529;SDS011;251;48.704;9.210;2022-07-10T02:14:53;1.97;;;1.17;;
529;SDS011;251;48.704;9.210;2022-07-10T02:17:23;2.00;;;1.60;;
529;SDS011;251;48.704;9.210;2022-07-10T02:19:50;2.33;;;1.60;;
529;SDS011;251;48.704;9.210;2022-07-10T02:22:17;1.63;;;1.33;;
529;SDS011;251;48.704;9.210;2022-07-10T02:24:43;2.57;;;1.40;;
529;SDS011;251;48.704;9.210;2022-07-10T02:27:10;1.50;;;1.20;;
529;SDS011;251;48.704;9.210;2022-07-10T02:29:38;1.53;;;1.20;;
529;SDS011;251;48.704;9.210;2022-07-10T02:32:05;2.03;;;1.50;;
529;SDS011;251;48.704;9.210;2022-07-10T02:34:32;1.80;;;1.13;;
529;SDS011;251;48.704;9.210;2022-07-10T02:36:59;2.30;;;1.67;;
529;SDS011;251;48.704;9.210;2022-07-10T02:39:26;2.20;;;1.40;;
529;SDS011;251;48.704;9.210;2022-07-10T02:41:52;1.60;;;1.30;;
529;SDS011;251;48.704;9.210;2022-07-10T02:44:19;2.87;;;2.07;;
529;SDS011;251;48.704;9.210;2022-07-10T02:46:48;2.30;;;1.80;;
529;SDS011;251;48.704;9.210;2022-07-10T02:49:15;2.30;;;1.90;;
529;SDS011;251;48.704;9.210;2022-07-10T02:51:41;2.93;;;2.07;;
529;SDS011;251;48.704;9.210;2022-07-10T02:54:08;3.33;;;2.30;;
529;SDS011;251;48.704;9.210;2022-07-10T02:56:35;2.87;;;2.13;;
529;SDS011;251;48.704;9.210;2022-07-10T02:59:02;4.63;;;3.07;;
529;SDS011;251;48.704;9.210;2022-07-10T03:01:29;4.00;;;2.80;;
529;SDS011;251;48.704;9.210;2022-07-10T03:03:57;3.80;;;2.87;;
529;SDS011;251;48.704;9.210;2022-07-10T03:06:24;3.70;;;2.10;;
529;SDS011;251;48.704;9.210;2022-07-10T03:08:50;3.63;;;3.20;;
529;SDS011;251;48.704;9.210;2022-07-10T03:11:17;3.50;;;2.97;;
529;SDS011;251;48.704;9.210;2022-07-10T03:13:44;3.10;;;2.53;;
529;SDS011;251;48.704;9.210;2022-07-10T03:16:11;4.47;;;2.97;;
529;SDS011;251;48.704;9.210;2022-07-10T03:18:37;3.30;;;2.57;;
529;SDS011;251;48.704;9.210;2022-07-10T03:21:06;3.73;;;3.40;;
529;SDS011;251;48.704;9.210;2022-07-10T03:23:32;4.93;;;2.90;;
529;SDS011;251;48.704;9.210;2022-07-10T03:25:59;4.63;;;2.40;;
529;SDS011;251;48.704;9.210;2022-07-10T03:28:26;3.60;;;2.17;;
529;SDS011;251;48.704;9.210;2022-07-10T03:30:53;2.83;;;2.10;;
529;SDS011;251;48.704;9.210;2022-07-10T03:33:20;2.80;;;2.23;;
529;SDS011;251;48.704;9.210;2022-07-10T03:35:46;4.10;;;3.10;;
529;SDS011;251;48.704;9.210;2022-07-10T03:38:14;3.23;;;2.43;;
529;SDS011;251;48.704;9.210;2022-07-10T03:40:41;3.40;;;2.47;;
529;SDS011;251;48.704;9.210;2022-07-10T03:43:10;2.40;;;2.10;;
529;SDS011;251;48.704;9.210;2022-07-10T03:45:37;2.97;;;2.50;;
529;SDS011;251;48.704;9.210;2022-07-10T03:48:04;5.10;;;3.93;;
529;SDS011;251;48.704;9.210;2022-07-10T03:50:31;4.63;;;2.67;;
529;SDS011;251;48.704;9.210;2022-07-10T03:52:59;2.90;;;2.23;;
529;SDS011;251;48.704;9.210;2022-07-10T03:55:27;4.70;;;2.70;;
529;SDS011;251;48.704;9.210;2022-07-10T03:57:53;2.50;;;2.30;;
529;SDS011;251;48.704;9.210;2022-07-10T04:00:19;3.53;;;2.50;;
529;SDS011;251;48.704;9.210;2022-07-10T04:02:48;1.90;;;1.70;;
529;SDS011;251;48.704;9.210;2022-07-10T04:05:14;2.87;;;2.43;;
529;SDS011;251;48.704;9.210;2022-07-10T04:07:41;2.30;;;1.67;;
529;SDS011;251;48.704;9.210;2022-07-10T04:10:08;2.70;;;2.13;;
529;SDS011;251;48.704;9.210;2022-07-10T04:12:37;2.27;;;1.73;;
529;SDS011;251;48.704;9.210;2022-07-10T04:15:04;2.70;;;1.73;;
529;SDS011;251;48.704;9.210;2022-07-10T04:17:31;2.33;;;1.90;;
529;SDS011;251;48.704;9.210;2022-07-10T04:19:58;3.73;;;3.37;;
529;SDS011;251;48.704;9.210;2022-07-10T04:22:25;4.83;;;2.60;;
529;SDS011;251;48.704;9.210;2022-07-10T04:24:52;3.27;;;2.00;;
529;SDS011;251;48.704;9.210;2022-07-10T04:27:19;2.27;;;1.80;;
529;SDS011;251;48.704;9.210;2022-07-10T04:29:47;3.13;;;2.17;;
529;SDS011;251;48.704;9.210;2022-07-10T04:32:14;2.50;;;2.00;;
529;SDS011;251;48.704;9.210;2022-07-10T04:34:42;3.27;;;2.30;;
529;SDS011;251;48.704;9.210;2022-07-10T04:37:08;2.40;;;2.00;;
529;SDS011;251;48.704;9.210;2022-07-10T04:39:35;3.00;;;2.10;;
529;SDS011;251;48.704;9.210;2022-07-10T04:42:03;2.50;;;2.10;;
529;SDS011;251;48.704;9.210;2022-07-10T04:44:30;2.83;;;2.43;;
529;SDS011;251;48.704;9.210;2022-07-10T04:46:58;3.03;;;2.70;;
529;SDS011;251;48.704;9.210;2022-07-10T04:49:25;2.70;;;2.23;;
529;SDS011;251;48.704;9.210;2022-07-10T04:51:52;2.00;;;1.80;;
529;SDS011;251;48.704;9.210;2022-07-10T04:54:19;2.60;;;2.20;;
529;SDS011;251;48.704;9.210;2022-07-10T04:56:46;2.60;;;1.80;;
529;SDS011;251;48.704;9.210;2022-07-10T04:59:12;1.97;;;1.60;;
529;SDS011;251;48.704;9.210;2022-07-10T05:01:39;2.73;;;2.10;;
529;SDS011;251;48.704;9.210;2022-07-10T05:04:07;3.60;;;2.30;;
529;SDS011;251;48.704;9.210;2022-07-10T05:06:34;2.20;;;2.00;;
529;SDS011;251;48.704;9.210;2022-07-10T05:09:01;2.50;;;1.70;;
529;SDS011;251;48.704;9.210;2022-07-10T05:11:28;4.63;;;2.20;;
529;SDS011;251;48.704;9.210;2022-07-10T05:13:56;1.90;;;1.60;;
529;SDS011;251;48.704;9.210;2022-07-10T05:16:23;2.97;;;1.93;;
529;SDS011;251;48.704;9.210;2022-07-10T05:18:50;3.10;;;1.83;;
529;SDS011;251;48.704;9.210;2022-07-10T05:21:18;2.43;;;1.93;;
529;SDS011;251;48.704;9.210;2022-07-10T05:23:44;1.83;;;1.30;;
529;SDS011;251;48.704;9.210;2022-07-10T05:26:11;1.87;;;1.43;;
529;SDS011;251;48.704;9.210;2022-07-10T05:28:38;2.20;;;1.77;;
529;SDS011;251;48.704;9.210;2022-07-10T05:31:05;1.80;;;1.37;;
529;SDS011;251;48.704;9.210;2022-07-10T05:33:32;1.53;;;1.10;;
529;SDS011;251;48.704;9.210;2022-07-10T05:35:59;2.23;;;1.53;;
529;SDS011;251;48.704;9.210;2022-07-10T05:38:27;2.40;;;1.53;;
529;SDS011;251;48.704;9.210;2022-07-10T05:40:54;1.97;;;1.30;;
529;SDS011;251;48.704;9.210;2022-07-10T05:43:20;4.20;;;1.53;;
529;SDS011;251;48.704;9.210;2022-07-10T05:45:47;2.37;;;1.87;;
529;SDS011;251;48.704;9.210;2022-07-10T05:48:14;2.10;;;1.50;;
529;SDS011;251;48.704;9.210;2022-07-10T05:50:41;2.17;;;1.93;;
529;SDS011;251;48.704;9.210;2022-07-10T05:53:07;2.30;;;1.57;;
529;SDS011;251;48.704;9.210;2022-07-10T05:55:36;2.30;;;1.43;;
529;SDS011;251;48.704;9.210;2022-07-10T05:58:02;1.90;;;1.63;;
529;SDS011;251;48.704;9.210;2022-07-10T06:00:29;1.70;;;1.27;;
529;SDS011;251;48.704;9.210;2022-07-10T06:02:56;1.30;;;0.90;;
529;SDS011;251;48.704;9.210;2022-07-10T06:05:23;1.60;;;1.00;;
529;SDS011;251;48.704;9.210;2022-07-10T06:07:50;1.50;;;1.00;;
529;SDS011;251;48.704;9.210;2022-07-10T06:10:17;1.80;;;1.20;;
529;SDS011;251;48.704;9.210;2022-07-10T06:12:45;1.27;;;0.77;;
529;SDS011;251;48.704;9.210;2022-07-10T06:15:11;2.83;;;1.17;;
529;SDS011;251;48.704;9.210;2022-07-10T06:17:38;1.50;;;1.20;;
529;SDS011;251;48.704;9.210;2022-07-10T06:20:05;1.60;;;0.97;;
529;SDS011;251;48.704;9.210;2022-07-10T06:22:33;1.63;;;0.83;;
529;SDS011;251;48.704;9.210;2022-07-10T06:25:00;1.40;;;0.90;;
529;SDS011;251;48.704;9.210;2022-07-10T06:27:29;1.53;;;1.10;;
529;SDS011;251;48.704;9.210;2022-07-10T06:29:57;2.03;;;1.30;;
529;SDS011;251;48.704;9.210;2022-07-10T06:32:24;1.70;;;1.23;;
529;SDS011;251;48.704;9.210;2022-07-10T06:34:51;1.30;;;0.90;;
529;SDS011;251;48.704;9.210;2022-07-10T06:37:18;1.70;;;1.40;;
529;SDS011;251;48.704;9.210;2022-07-10T06:39:46;1.73;;;1.40;;
529;SDS011;251;48.704;9.210;2022-07-10T06:42:13;2.57;;;2.07;;
529;SDS011;251;48.704;9.210;2022-07-10T06:44:41;1.40;;;1.00;;
529;SDS011;251;48.704;9.210;2022-07-10T06:47:10;1.30;;;1.00;;
529;SDS011;251;48.704;9.210;2022-07-10T06:49:55;1.67;;;1.37;;
529;SDS011;251;48.704;9.210;2022-07-10T06:52:22;2.17;;;1.27;;
529;SDS011;251;48.704;9.210;2022-07-10T06:54:50;1.90;;;1.23;;
529;SDS011;251;48.704;9.210;2022-07-10T06:57:17;4.53;;;0.97;;
529;SDS011;251;48.704;9.210;2022-07-10T06:59:44;1.40;;;1.10;;
529;SDS011;251;48.704;9.210;2022-07-10T07:02:13;2.67;;;1.20;;
529;SDS011;251;48.704;9.210;2022-07-10T07:04:39;2.73;;;1.60;;
529;SDS011;251;48.704;9.210;2022-07-10T07:07:06;1.70;;;1.10;;
529;SDS011;251;48.704;9.210;2022-07-10T07:09:33;1.20;;;0.80;;
529;SDS011;251;48.704;9.210;2022-07-10T07:11:59;1.33;;;1.10;;
529;SDS011;251;48.704;9.210;2022-07-10T07:14:26;1.70;;;1.07;;
529;SDS011;251;48.704;9.210;2022-07-10T07:16:53;1.43;;;0.87;;
529;SDS011;251;48.704;9.210;2022-07-10T07:19:32;1.47;;;0.90;;
529;SDS011;251;48.704;9.210;2022-07-10T07:22:19;1.50;;;1.00;;
529;SDS011;251;48.704;9.210;2022-07-10T07:25:04;1.30;;;0.90;;
529;SDS011;251;48.704;9.210;2022-07-10T07:27:32;1.20;;;0.70;;
529;SDS011;251;48.704;9.210;2022-07-10T07:30:01;1.40;;;0.97;;
529;SDS011;251;48.704;9.210;2022-07-10T07:32:29;1.60;;;1.30;;
529;SDS011;251;48.704;9.210;2022-07-10T07:34:57;1.40;;;1.00;;
529;SDS011;251;48.704;9.210;2022-07-10T07:37:33;1.30;;;0.80;;
529;SDS011;251;48.704;9.210;2022-07-10T07:40:01;1.33;;;0.93;;
529;SDS011;251;48.704;9.210;2022-07-10T07:42:28;2.33;;;0.83;;
529;SDS011;251;48.704;9.210;2022-07-10T07:44:55;1.30;;;0.90;;
529;SDS011;251;48.704;9.210;2022-07-10T07:47:21;1.50;;;0.83;;
529;SDS011;251;48.704;9.210;2022-07-10T07:49:48;1.40;;;0.87;;
529;SDS011;251;48.704;9.210;2022-07-10T07:52:16;1.40;;;1.07;;
529;SDS011;251;48.704;9.210;2022-07-10T07:54:43;1.60;;;1.33;;
529;SDS011;251;48.704;9.210;2022-07-10T07:57:10;1.27;;;0.90;;
529;SDS011;251;48.704;9.210;2022-07-10T07:59:37;1.60;;;1.00;;
529;SDS011;251;48.704;9.210;2022-07-10T08:02:05;2.37;;;1.20;;
529;SDS011;251;48.704;9.210;2022-07-10T08:04:31;1.83;;;0.83;;
529;SDS011;251;48.704;9.210;2022-07-10T08:06:58;1.30;;;0.70;;
529;SDS011;251;48.704;9.210;2022-07-10T08:09:27;2.37;;;1.40;;
529;SDS011;251;48.704;9.210;2022-07-10T08:11:54;1.30;;;0.97;;
529;SDS011;251;48.704;9.210;2022-07-10T08:14:21;6.47;;;1.27;;
529;SDS011;251;48.704;9.210;2022-07-10T08:16:48;1.20;;;0.70;;
529;SDS011;251;48.704;9.210;2022-07-10T08:19:16;1.57;;;1.07;;
529;SDS011;251;48.704;9.210;2022-07-10T08:21:42;1.93;;;1.20;;
529;SDS011;251;48.704;9.210;2022-07-10T08:24:09;3.17;;;1.00;;
529;SDS011;251;48.704;9.210;2022-07-10T08:26:37;1.37;;;0.80;;
529;SDS011;251;48.704;9.210;2022-07-10T08:29:04;1.67;;;0.90;;
529;SDS011;251;48.704;9.210;2022-07-10T08:31:31;1.60;;;1.00;;
529;SDS011;251;48.704;9.210;2022-07-10T08:33:58;1.30;;;0.80;;
529;SDS011;251;48.704;9.210;2022-07-10T08:36:25;2.53;;;1.20;;
529;SDS011;251;48.704;9.210;2022-07-10T08:38:52;1.90;;;1.20;;
529;SDS011;251;48.704;9.210;2022-07-10T08:41:20;1.60;;;0.83;;
529;SDS011;251;48.704;9.210;2022-07-10T08:43:51;1.53;;;1.10;;
529;SDS011;251;48.704;9.210;2022-07-10T08:46:18;1.50;;;0.70;;
529;SDS011;251;48.704;9.210;2022-07-10T08:48:46;1.73;;;1.13;;
529;SDS011;251;48.704;9.210;2022-07-10T08:51:15;1.40;;;0.70;;
529;SDS011;251;48.704;9.210;2022-07-10T08:53:49;2.30;;;1.13;;
529;SDS011;251;48.704;9.210;2022-07-10T08:56:18;1.77;;;1.10;;
529;SDS011;251;48.704;9.210;2022-07-10T08:58:45;1.57;;;0.80;;
529;SDS011;251;48.704;9.210;2022-07-10T09:01:14;1.37;;;0.80;;
529;SDS011;251;48.704;9.210;2022-07-10T09:03:47;1.77;;;0.80;;
529;SDS011;251;48.704;9.210;2022-07-10T09:06:14;1.43;;;1.33;;
529;SDS011;251;48.704;9.210;2022-07-10T09:08:45;1.50;;;0.90;;
529;SDS011;251;48.704;9.210;2022-07-10T09:11:24;1.40;;;0.90;;
529;SDS011;251;48.704;9.210;2022-07-10T09:13:54;1.30;;;0.77;;
529;SDS011;251;48.704;9.210;2022-07-10T09:16:24;3.00;;;1.17;;
529;SDS011;251;48.704;9.210;2022-07-10T09:18:51;1.10;;;0.60;;
529;SDS011;251;48.704;9.210;2022-07-10T09:21:18;1.47;;;1.07;;
529;SDS011;251;48.704;9.210;2022-07-10T09:23:46;1.37;;;0.80;;
529;SDS011;251;48.704;9.210;2022-07-10T09:26:13;1.30;;;0.70;;
529;SDS011;251;48.704;9.210;2022-07-10T09:28:40;1.40;;;0.93;;
529;SDS011;251;48.704;9.210;2022-07-10T09:31:08;1.30;;;0.90;;
529;SDS011;251;48.704;9.210;2022-07-10T09:33:36;1.30;;;0.70;;
529;SDS011;251;48.704;9.210;2022-07-10T09:36:06;1.40;;;0.80;;
529;SDS011;251;48.704;9.210;2022-07-10T09:41:25;1.40;;;0.80;;
529;SDS011;251;48.704;9.210;2022-07-10T09:43:53;1.73;;;1.10;;
529;SDS011;251;48.704;9.210;2022-07-10T09:46:22;1.40;;;0.90;;
529;SDS011;251;48.704;9.210;2022-07-10T09:49:01;1.10;;;0.63;;
529;SDS011;251;48.704;9.210;2022-07-10T09:51:30;1.30;;;0.90;;
529;SDS011;251;48.704;9.210;2022-07-10T09:54:00;1.20;;;0.97;;
529;SDS011;251;48.704;9.210;2022-07-10T09:56:30;1.80;;;0.90;;
529;SDS011;251;48.704;9.210;2022-07-10T09:59:04;1.47;;;0.90;;
529;SDS011;251;48.704;9.210;2022-07-10T10:01:35;1.53;;;1.07;;
529;SDS011;251;48.704;9.210;2022-07-10T10:04:04;1.20;;;0.80;;
529;SDS011;251;48.704;9.210;2022-07-10T10:06:31;1.60;;;1.00;;
529;SDS011;251;48.704;9.210;2022-07-10T10:09:03;1.30;;;0.73;;
529;SDS011;251;48.704;9.210;2022-07-10T10:11:32;2.57;;;0.97;;
529;SDS011;251;48.704;9.210;2022-07-10T10:14:02;2.17;;;1.00;;
529;SDS011;251;48.704;9.210;2022-07-10T10:16:29;1.20;;;0.80;;
529;SDS011;251;48.704;9.210;2022-07-10T10:18:56;1.30;;;0.70;;
529;SDS011;251;48.704;9.210;2022-07-10T10:21:43;1.40;;;0.90;;
529;SDS011;251;48.704;9.210;2022-07-10T10:24:11;1.50;;;1.30;;
529;SDS011;251;48.704;9.210;2022-07-10T10:26:39;1.40;;;0.80;;
529;SDS011;251;48.704;9.210;2022-07-10T10:29:07;1.20;;;0.70;;
529;SDS011;251;48.704;9.210;2022-07-10T10:31:35;1.20;;;0.77;;
529;SDS011;251;48.704;9.210;2022-07-10T10:34:03;1.43;;;0.70;;
529;SDS011;251;48.704;9.210;2022-07-10T10:36:44;1.50;;;0.83;;
529;SDS011;251;48.704;9.210;2022-07-10T10:39:12;1.40;;;0.80;;
529;SDS011;251;48.704;9.210;2022-07-10T10:41:47;1.87;;;1.00;;
529;SDS011;251;48.704;9.210;2022-07-10T10:44:19;1.80;;;0.67;;
529;SDS011;251;48.704;9.210;2022-07-10T10:47:00;2.30;;;0.80;;
529;SDS011;251;48.704;9.210;2022-07-10T10:52:23;1.40;;;1.10;;
529;SDS011;251;48.704;9.210;2022-07-10T10:55:03;1.40;;;0.93;;
529;SDS011;251;48.704;9.210;2022-07-10T10:57:37;1.60;;;1.10;;
529;SDS011;251;48.704;9.210;2022-07-10T11:00:13;1.30;;;0.80;;
529;SDS011;251;48.704;9.210;2022-07-10T11:03:06;1.20;;;0.83;;
529;SDS011;251;48.704;9.210;2022-07-10T11:05:45;1.20;;;0.80;;
529;SDS011;251;48.704;9.210;2022-07-10T11:08:16;1.70;;;1.03;;
529;SDS011;251;48.704;9.210;2022-07-10T11:11:03;5.67;;;1.10;;
529;SDS011;251;48.704;9.210;2022-07-10T11:14:06;1.30;;;0.70;;
529;SDS011;251;48.704;9.210;2022-07-10T11:16:34;2.17;;;1.00;;
529;SDS011;251;48.704;9.210;2022-07-10T11:19:01;1.40;;;0.83;;
529;SDS011;251;48.704;9.210;2022-07-10T11:21:30;3.33;;;0.83;;
529;SDS011;251;48.704;9.210;2022-07-10T11:24:09;1.70;;;0.87;;
529;SDS011;251;48.704;9.210;2022-07-10T11:26:52;1.17;;;0.67;;
529;SDS011;251;48.704;9.210;2022-07-10T11:29:25;1.50;;;1.10;;
529;SDS011;251;48.704;9.210;2022-07-10T11:31:52;1.37;;;0.90;;
529;SDS011;251;48.704;9.210;2022-07-10T11:34:19;1.53;;;0.70;;
529;SDS011;251;48.704;9.210;2022-07-10T11:36:47;1.13;;;0.70;;
529;SDS011;251;48.704;9.210;2022-07-10T11:39:16;2.10;;;1.10;;
529;SDS011;251;48.704;9.210;2022-07-10T11:41:43;2.50;;;1.03;;
529;SDS011;251;48.704;9.210;2022-07-10T11:44:13;1.10;;;0.63;;
529;SDS011;251;48.704;9.210;2022-07-10T11:46:41;1.10;;;0.70;;
529;SDS011;251;48.704;9.210;2022-07-10T11:49:09;1.10;;;0.70;;
529;SDS011;251;48.704;9.210;2022-07-10T11:51:39;1.40;;;0.90;;
529;SDS011;251;48.704;9.210;2022-07-10T11:54:08;1.20;;;0.70;;
529;SDS011;251;48.704;9.210;2022-07-10T11:56:38;1.10;;;0.70;;
529;SDS011;251;48.704;9.210;2022-07-10T11:59:07;1.23;;;0.80;;
529;SDS011;251;48.704;9.210;2022-07-10T12:01:35;1.20;;;0.87;;
529;SDS011;251;48.704;9.210;2022-07-10T12:04:07;1.50;;;0.80;;
529;SDS011;251;48.704;9.210;2022-07-10T12:06:35;1.20;;;0.70;;
529;SDS011;251;48.704;9.210;2022-07-10T12:09:04;1.40;;;0.83;;
529;SDS011;251;48.704;9.210;2022-07-10T12:11:33;1.40;;;0.90;;
529;SDS011;251;48.704;9.210;2022-07-10T12:14:10;1.10;;;0.60;;
529;SDS011;251;48.704;9.210;2022-07-10T12:16:39;1.10;;;0.70;;
529;SDS011;251;48.704;9.210;2022-07-10T12:19:07;1.40;;;1.07;;
529;SDS011;251;48.704;9.210;2022-07-10T12:21:35;1.10;;;0.70;;
529;SDS011;251;48.704;9.210;2022-07-10T12:24:03;1.43;;;1.03;;
529;SDS011;251;48.704;9.210;2022-07-10T12:26:33;1.30;;;0.80;;
529;SDS011;251;48.704;9.210;2022-07-10T12:29:01;1.20;;;0.60;;
529;SDS011;251;48.704;9.210;2022-07-10T12:31:30;1.90;;;0.77;;
529;SDS011;251;48.704;9.210;2022-07-10T12:33:58;1.20;;;0.70;;
529;SDS011;251;48.704;9.210;2022-07-10T12:36:40;1.00;;;0.57;;
529;SDS011;251;48.704;9.210;2022-07-10T12:39:13;1.10;;;0.60;;
529;SDS011;251;48.704;9.210;2022-07-10T12:44:37;1.03;;;0.60;;
529;SDS011;251;48.704;9.210;2022-07-10T12:47:07;1.00;;;0.60;;
529;SDS011;251;48.704;9.210;2022-07-10T12:49:49;1.20;;;0.70;;
529;SDS011;251;48.704;9.210;2022-07-10T12:52:20;1.10;;;0.60;;
529;SDS011;251;48.704;9.210;2022-07-10T12:55:04;1.13;;;0.60;;
529;SDS011;251;48.704;9.210;2022-07-10T12:57:31;1.40;;;0.80;;
529;SDS011;251;48.704;9.210;2022-07-10T13:00:02;1.10;;;0.60;;
529;SDS011;251;48.704;9.210;2022-07-10T13:02:32;1.10;;;0.63;;
529;SDS011;251;48.704;9.210;2022-07-10T13:04:59;3.37;;;0.67;;
529;SDS011;251;48.704;9.210;2022-07-10T13:07:29;1.20;;;0.60;;
529;SDS011;251;48.704;9.210;2022-07-10T13:09:58;1.27;;;0.67;;
529;SDS011;251;48.704;9.210;2022-07-10T13:12:25;1.30;;;0.70;;
529;SDS011;251;48.704;9.210;2022-07-10T13:14:52;1.20;;;0.70;;
529;SDS011;251;48.704;9.210;2022-07-10T13:17:19;1.77;;;0.80;;
529;SDS011;251;48.704;9.210;2022-07-10T13:19:47;2.60;;;1.33;;
529;SDS011;251;48.704;9.210;2022-07-10T13:22:14;1.20;;;0.70;;
529;SDS011;251;48.704;9.210;2022-07-10T13:24:41;1.20;;;0.83;;
529;SDS011;251;48.704;9.210;2022-07-10T13:27:07;1.47;;;0.77;;
529;SDS011;251;48.704;9.210;2022-07-10T13:29:34;1.33;;;0.93;;
529;SDS011;251;48.704;9.210;2022-07-10T13:32:01;1.00;;;0.50;;
529;SDS011;251;48.704;9.210;2022-07-10T13:34:28;1.17;;;0.73;;
529;SDS011;251;48.704;9.210;2022-07-10T13:36:56;1.07;;;0.60;;
529;SDS011;251;48.704;9.210;2022-07-10T13:39:24;1.10;;;0.60;;
529;SDS011;251;48.704;9.210;2022-07-10T13:41:50;1.00;;;0.50;;
529;SDS011;251;48.704;9.210;2022-07-10T13:44:17;1.10;;;0.70;;
529;SDS011;251;48.704;9.210;2022-07-10T13:46:44;2.03;;;0.70;;
529;SDS011;251;48.704;9.210;2022-07-10T13:49:11;1.00;;;0.50;;
529;SDS011;251;48.704;9.210;2022-07-10T13:51:38;1.10;;;0.60;;
529;SDS011;251;48.704;9.210;2022-07-10T13:54:06;1.00;;;0.50;;
529;SDS011;251;48.704;9.210;2022-07-10T13:56:32;2.60;;;0.53;;
529;SDS011;251;48.704;9.210;2022-07-10T13:58:59;1.10;;;0.70;;
529;SDS011;251;48.704;9.210;2022-07-10T14:01:26;1.20;;;0.80;;
529;SDS011;251;48.704;9.210;2022-07-10T14:03:53;1.20;;;0.60;;
529;SDS011;251;48.704;9.210;2022-07-10T14:06:20;1.20;;;0.63;;
529;SDS011;251;48.704;9.210;2022-07-10T14:08:46;1.87;;;0.70;;
529;SDS011;251;48.704;9.210;2022-07-10T14:11:15;1.00;;;0.50;;
529;SDS011;251;48.704;9.210;2022-07-10T14:13:43;1.10;;;0.60;;
529;SDS011;251;48.704;9.210;2022-07-10T14:16:10;1.00;;;0.60;;
529;SDS011;251;48.704;9.210;2022-07-10T14:18:36;1.10;;;0.50;;
529;SDS011;251;48.704;9.210;2022-07-10T14:21:04;1.20;;;0.67;;
529;SDS011;251;48.704;9.210;2022-07-10T14:23:33;2.80;;;0.70;;
529;SDS011;251;48.704;9.210;2022-07-10T14:26:01;1.00;;;0.50;;
529;SDS011;251;48.704;9.210;2022-07-10T14:28:30;1.00;;;0.50;;
529;SDS011;251;48.704;9.210;2022-07-10T14:30:57;1.30;;;0.93;;
529;SDS011;251;48.704;9.210;2022-07-10T14:33:25;1.27;;;0.70;;
529;SDS011;251;48.704;9.210;2022-07-10T14:35:52;1.70;;;1.27;;
529;SDS011;251;48.704;9.210;2022-07-10T14:38:19;1.00;;;0.50;;
529;SDS011;251;48.704;9.210;2022-07-10T14:40:46;1.20;;;0.67;;
529;SDS011;251;48.704;9.210;2022-07-10T14:43:12;1.30;;;0.70;;
529;SDS011;251;48.704;9.210;2022-07-10T14:45:41;1.33;;;0.70;;
529;SDS011;251;48.704;9.210;2022-07-10T14:48:07;1.17;;;0.70;;
529;SDS011;251;48.704;9.210;2022-07-10T14:50:35;1.10;;;0.70;;
529;SDS011;251;48.704;9.210;2022-07-10T14:53:02;1.10;;;0.60;;
529;SDS011;251;48.704;9.210;2022-07-10T14:55:30;1.10;;;0.50;;
529;SDS011;251;48.704;9.210;2022-07-10T14:57:57;1.10;;;0.60;;
529;SDS011;251;48.704;9.210;2022-07-10T15:00:24;1.10;;;0.60;;
529;SDS011;251;48.704;9.210;2022-07-10T15:02:52;1.73;;;0.73;;
529;SDS011;251;48.704;9.210;2022-07-10T15:05:19;1.90;;;0.57;;
529;SDS011;251;48.704;9.210;2022-07-10T15:07:45;1.07;;;0.57;;
529;SDS011;251;48.704;9.210;2022-07-10T15:10:12;1.10;;;0.60;;
529;SDS011;251;48.704;9.210;2022-07-10T15:12:41;1.00;;;0.50;;
529;SDS011;251;48.704;9.210;2022-07-10T15:15:09;1.00;;;0.50;;
529;SDS011;251;48.704;9.210;2022-07-10T15:17:36;1.20;;;0.70;;
529;SDS011;251;48.704;9.210;2022-07-10T15:20:05;1.63;;;0.60;;
529;SDS011;251;48.704;9.210;2022-07-10T15:22:32;1.30;;;0.80;;
529;SDS011;251;48.704;9.210;2022-07-10T15:24:59;1.40;;;0.70;;
529;SDS011;251;48.704;9.210;2022-07-10T15:27:26;1.10;;;0.60;;
529;SDS011;251;48.704;9.210;2022-07-10T15:29:53;1.00;;;0.50;;
529;SDS011;251;48.704;9.210;2022-07-10T15:32:19;1.10;;;0.63;;
529;SDS011;251;48.704;9.210;2022-07-10T15:34:46;1.00;;;0.50;;
529;SDS011;251;48.704;9.210;2022-07-10T15:37:15;1.30;;;0.70;;
529;SDS011;251;48.704;9.210;2022-07-10T15:39:42;1.33;;;0.67;;
529;SDS011;251;48.704;9.210;2022-07-10T15:42:09;1.00;;;0.60;;
529;SDS011;251;48.704;9.210;2022-07-10T15:44:36;1.10;;;0.53;;
529;SDS011;251;48.704;9.210;2022-07-10T15:47:04;1.00;;;0.50;;
529;SDS011;251;48.704;9.210;2022-07-10T15:49:31;1.03;;;0.60;;
529;SDS011;251;48.704;9.210;2022-07-10T15:51:58;1.30;;;0.50;;
529;SDS011;251;48.704;9.210;2022-07-10T15:54:26;1.10;;;0.70;;
529;SDS011;251;48.704;9.210;2022-07-10T15:56:53;1.70;;;0.77;;
529;SDS011;251;48.704;9.210;2022-07-10T15:59:20;3.53;;;0.90;;
529;SDS011;251;48.704;9.210;2022-07-10T16:01:48;1.20;;;0.50;;